Time;durP1;ratioP1;P1;durP2;ratioP2;P2;SDS_P1;SDS_P2;PMS_P1;PMS_P2;Temp;Humidity;BMP_temperature;BMP_pressure;BME280_temperature;BME280_humidity;BME280_pressure;Samples;Min_cycle;Max_cycle;Signal;HPM_P1;HPM_P2
2023/01/14 00:01:34;;;;;;;;;3.75;1.00;;;;;9.56;100.00;101776.28;4979711;28;49786;-66
2023/01/14 00:04:00;;;;;;;;;3.75;3.25;;;;;9.45;100.00;101749.59;4990560;28;50559;-63
2023/01/14 00:06:29;;;;;;;;;3.00;2.25;;;;;9.55;100.00;101766.59;4986821;28;49368;-67
2023/01/14 00:09:01;;;;;;;;;4.50;2.75;;;;;9.45;100.00;101743.44;4986207;28;50113;-64
2023/01/14 00:11:45;;;;;;;;;2.00;2.00;;;;;9.13;100.00;101684.50;4987728;28;49712;-65
2023/01/14 00:14:13;;;;;;;;;2.50;2.50;;;;;9.29;100.00;101696.50;4986296;28;49797;-64
2023/01/14 00:16:42;;;;;;;;;6.25;2.25;;;;;9.58;100.00;101737.91;4981763;28;49601;-64
2023/01/14 00:19:09;;;;;;;;;3.00;2.00;;;;;9.66;100.00;101740.84;4972808;28;49706;-66
2023/01/14 00:21:34;;;;;;;;;3.25;2.50;;;;;9.58;100.00;101716.03;4973103;28;50061;-64
2023/01/14 00:24:00;;;;;;;;;3.25;2.50;;;;;9.59;100.00;101704.72;4972787;28;51053;-67
2023/01/14 00:26:25;;;;;;;;;3.25;3.25;;;;;9.68;100.00;101712.94;4972777;28;49941;-65
2023/01/14 00:28:51;;;;;;;;;8.25;4.75;;;;;9.69;100.00;101701.63;4972514;28;50243;-65
2023/01/14 00:31:20;;;;;;;;;2.50;1.25;;;;;9.69;100.00;101696.38;4972777;28;49705;-65
2023/01/14 00:33:45;;;;;;;;;3.75;1.00;;;;;9.82;100.00;101711.75;4972418;28;50586;-65
2023/01/14 00:36:14;;;;;;;;;3.25;2.25;;;;;9.77;100.00;101720.28;4972696;28;49750;-65
2023/01/14 00:38:40;;;;;;;;;2.00;2.00;;;;;9.83;100.00;101696.91;4972637;28;50176;-74
2023/01/14 00:41:10;;;;;;;;;2.25;1.00;;;;;9.88;100.00;101701.50;4972776;28;50060;-66
2023/01/14 00:43:38;;;;;;;;;3.00;2.00;;;;;9.88;100.00;101696.25;4972143;28;50887;-64
2023/01/14 00:46:05;;;;;;;;;4.50;2.00;;;;;9.94;100.00;101707.00;4972250;28;49969;-65
2023/01/14 00:48:34;;;;;;;;;2.50;1.75;;;;;9.89;100.00;101690.16;4972248;28;49791;-67
2023/01/14 00:51:00;;;;;;;;;2.50;1.75;;;;;9.98;100.00;101698.38;4972756;28;50109;-65
2023/01/14 00:53:26;;;;;;;;;1.50;0.75;;;;;9.98;100.00;101677.41;4972242;28;51009;-71
2023/01/14 00:55:52;;;;;;;;;1.00;1.00;;;;;9.94;100.00;101666.72;4972266;28;49655;-65
2023/01/14 00:58:17;;;;;;;;;1.25;1.00;;;;;9.93;100.00;101670.19;4971939;28;49744;-65
2023/01/14 01:00:43;;;;;;;;;1.00;1.00;;;;;10.01;100.00;101676.63;4972247;28;49798;-68
2023/01/14 01:03:08;;;;;;;;;4.50;0.75;;;;;9.94;100.00;101674.59;4953642;28;51394;-64
2023/01/14 01:05:36;;;;;;;;;2.00;2.00;;;;;9.90;100.00;101659.59;4971854;28;49672;-65
2023/01/14 01:08:03;;;;;;;;;1.50;1.50;;;;;9.99;100.00;101662.56;4972226;28;49979;-67
2023/01/14 01:10:28;;;;;;;;;1.25;1.25;;;;;10.03;100.00;101653.94;4972067;28;49938;-68
2023/01/14 01:12:54;;;;;;;;;1.50;1.50;;;;;10.04;100.00;101648.78;4971999;28;50652;-65
2023/01/14 01:15:19;;;;;;;;;1.00;1.00;;;;;10.04;100.00;101646.16;4971435;28;66818;-72
2023/01/14 01:17:44;;;;;;;;;0.75;0.75;;;;;9.96;100.00;101630.97;4975149;28;54194;-73
2023/01/14 01:20:11;;;;;;;;;4.25;4.25;;;;;9.94;100.00;101624.75;4971556;28;55300;-69
2023/01/14 01:22:36;;;;;;;;;2.25;2.00;;;;;10.04;100.00;101637.41;4971699;28;50787;-75
2023/01/14 01:25:02;;;;;;;;;3.25;2.25;;;;;9.90;100.00;101610.66;4954381;28;49746;-67
2023/01/14 01:27:27;;;;;;;;;1.00;1.00;;;;;10.07;100.00;101631.38;4971685;28;50158;-67
2023/01/14 01:29:53;;;;;;;;;1.50;1.00;;;;;10.00;100.00;101618.00;4971607;28;49934;-69
2023/01/14 01:32:19;;;;;;;;;3.00;3.00;;;;;10.13;100.00;101635.09;4971655;28;50679;-65
2023/01/14 01:34:44;;;;;;;;;3.00;1.00;;;;;10.06;100.00;101611.22;4971642;28;49586;-65
2023/01/14 01:37:10;;;;;;;;;3.00;2.00;;;;;10.10;100.00;101607.84;4971333;28;52566;-64
2023/01/14 01:39:35;;;;;;;;;3.75;2.75;;;;;10.14;100.00;101612.41;4971812;28;51338;-65
2023/01/14 01:42:00;;;;;;;;;3.00;3.00;;;;;10.15;100.00;101615.06;4971069;28;49828;-65
2023/01/14 01:44:26;;;;;;;;;3.75;2.50;;;;;10.15;100.00;101620.31;4971398;28;49854;-66
2023/01/14 01:46:51;;;;;;;;;1.00;0.50;;;;;10.09;100.00;101624.44;4971428;28;49835;-66
2023/01/14 01:49:36;;;;;;;;;4.00;4.00;;;;;10.09;100.00;101625.31;4971591;28;49869;-69
2023/01/14 01:52:16;;;;;;;;;1.25;1.00;;;;;10.14;100.00;101615.91;4971278;28;49732;-67
2023/01/14 01:54:47;;;;;;;;;1.50;1.50;;;;;10.10;100.00;101600.88;4971443;28;49930;-64
2023/01/14 01:57:15;;;;;;;;;2.00;2.00;;;;;10.18;100.00;101606.41;4971006;28;49889;-64
2023/01/14 01:59:49;;;;;;;;;1.50;1.50;;;;;10.00;100.00;101580.41;4975539;28;49879;-65
2023/01/14 02:02:16;;;;;;;;;1.00;1.00;;;;;10.17;100.00;101597.63;4971148;28;50565;-67
2023/01/14 02:04:41;;;;;;;;;1.50;1.50;;;;;10.12;100.00;101575.59;4970822;28;49778;-73
2023/01/14 02:07:20;;;;;;;;;1.00;1.00;;;;;10.35;100.00;101617.53;4971342;28;49628;-64
2023/01/14 02:09:47;;;;;;;;;1.50;1.50;;;;;10.36;100.00;101599.22;4971495;28;49909;-65
2023/01/14 02:12:31;;;;;;;;;0.75;0.75;;;;;10.40;100.00;101593.22;4970546;28;50951;-74
2023/01/14 02:15:24;;;;;;;;;0.00;0.00;;;;;10.42;100.00;101582.78;4971204;28;49863;-68
2023/01/14 02:18:29;;;;;;;;;1.25;1.00;;;;;10.37;100.00;101579.13;4971141;28;49618;-76
2023/01/14 02:21:07;;;;;;;;;2.00;2.00;;;;;10.41;100.00;101576.63;4971104;28;49741;-64
2023/01/14 02:24:09;;;;;;;;;1.00;1.00;;;;;10.45;100.00;101556.66;4971023;28;50532;-67
2023/01/14 02:26:37;;;;;;;;;1.25;1.25;;;;;10.50;100.00;101557.69;4970855;28;49626;-67
2023/01/14 02:29:26;;;;;;;;;1.00;1.00;;;;;10.46;100.00;101543.56;4970614;28;49676;-65
2023/01/14 02:32:18;;;;;;;;;0.00;0.00;;;;;10.53;100.00;101555.19;4953653;28;49784;-79
2023/01/14 02:35:06;;;;;;;;;1.00;1.00;;;;;10.45;100.00;101540.91;4970545;28;49980;-67
2023/01/14 02:37:56;;;;;;;;;0.50;0.50;;;;;10.55;100.00;101561.38;4970841;28;49806;-65
2023/01/14 02:40:24;;;;;;;;;1.00;1.00;;;;;10.56;100.00;101557.91;4970752;28;49761;-65
2023/01/14 02:45:54;;;;;;;;;0.75;0.75;;;;;10.49;100.00;101532.28;4970645;28;50301;-65
2023/01/14 02:48:21;;;;;;;;;1.00;1.00;;;;;10.58;100.00;101556.22;4970697;28;49798;-70
2023/01/14 02:50:48;;;;;;;;;0.00;0.00;;;;;10.11;100.00;101474.09;4953152;28;49812;-64
2023/01/14 02:53:17;;;;;;;;;0.00;0.00;;;;;10.61;100.00;101553.69;4970732;28;49874;-67
2023/01/14 02:55:42;;;;;;;;;0.00;0.00;;;;;10.55;100.00;101538.63;4970447;28;52226;-67
2023/01/14 02:58:32;;;;;;;;;0.00;0.00;;;;;10.62;100.00;101533.59;4970282;28;49777;-64
2023/01/14 03:01:32;;;;;;;;;1.25;1.00;;;;;10.34;100.00;101482.81;4970700;28;49699;-70
2023/01/14 03:04:44;;;;;;;;;0.00;0.00;;;;;10.59;100.00;101515.97;4970605;28;49771;-65
2023/01/14 03:07:27;;;;;;;;;0.00;0.00;;;;;10.59;100.00;101519.50;4970271;28;49908;-67
2023/01/14 03:10:12;;;;;;;;;0.00;0.00;;;;;10.58;100.00;101516.81;4970222;28;49649;-64
2023/01/14 03:12:48;;;;;;;;;1.50;0.00;;;;;10.59;100.00;101500.22;4970325;28;49694;-66
2023/01/14 03:15:23;;;;;;;;;0.00;0.00;;;;;10.57;100.00;101488.78;4970798;28;49771;-65
2023/01/14 03:18:08;;;;;;;;;1.50;0.00;;;;;10.60;100.00;101488.88;4970276;28;50874;-63
2023/01/14 03:20:38;;;;;;;;;2.00;2.00;;;;;10.57;100.00;101470.41;4970514;28;49874;-72
2023/01/14 03:23:10;;;;;;;;;0.00;0.00;;;;;10.53;100.00;101458.94;4970330;28;49823;-65
2023/01/14 03:25:41;;;;;;;;;0.00;0.00;;;;;10.65;100.00;101468.03;4972551;28;49970;-65
2023/01/14 03:28:11;;;;;;;;;3.00;1.00;;;;;10.58;100.00;101446.81;4973340;28;51283;-65
2023/01/14 03:30:42;;;;;;;;;2.00;2.00;;;;;10.57;100.00;101437.16;4973713;28;49874;-72
2023/01/14 03:33:14;;;;;;;;;3.25;1.50;;;;;10.72;100.00;101452.53;4973665;28;49789;-65
2023/01/14 03:35:42;;;;;;;;;2.25;1.25;;;;;10.63;100.00;101428.59;4956073;28;50244;-65
2023/01/14 03:38:35;;;;;;;;;0.25;0.25;;;;;10.62;100.00;101412.81;4973302;28;49974;-65
2023/01/14 03:41:06;;;;;;;;;2.00;2.00;;;;;10.64;100.00;101408.50;4971945;28;49799;-65
2023/01/14 03:43:31;;;;;;;;;1.00;1.00;;;;;10.68;100.00;101412.97;4973309;28;49789;-67
2023/01/14 03:45:57;;;;;;;;;0.33;0.33;;;;;10.59;100.00;101392.59;4973257;28;49831;-66
2023/01/14 03:48:24;;;;;;;;;1.00;1.00;;;;;10.52;100.00;101378.41;4973178;28;49944;-74
2023/01/14 03:51:15;;;;;;;;;0.50;0.50;;;;;10.66;100.00;101401.53;4972907;28;49971;-70
2023/01/14 03:54:06;;;;;;;;;0.00;0.00;;;;;10.49;100.00;101369.53;4973492;28;49586;-64
2023/01/14 03:56:45;;;;;;;;;3.00;2.00;;;;;10.62;100.00;101384.81;4973446;28;49910;-64
2023/01/14 03:59:17;;;;;;;;;2.75;2.00;;;;;10.53;100.00;101367.06;4972793;28;50449;-64
2023/01/14 04:01:47;;;;;;;;;3.75;0.75;;;;;10.71;100.00;101385.09;4972832;28;49700;-65
2023/01/14 04:04:14;;;;;;;;;3.00;1.00;;;;;10.58;100.00;101359.28;4955290;28;49934;-71
2023/01/14 04:06:39;;;;;;;;;1.00;1.00;;;;;10.68;100.00;101373.59;4973191;28;49928;-80
2023/01/14 04:09:06;;;;;;;;;2.50;2.00;;;;;10.73;100.00;101372.00;4973086;28;50877;-65
2023/01/14 04:11:31;;;;;;;;;3.00;2.00;;;;;10.63;100.00;101341.97;4972964;28;49870;-65
2023/01/14 04:16:40;;;;;;;;;1.75;1.00;;;;;10.72;100.00;101331.72;4973189;28;49799;-65
2023/01/14 04:19:06;;;;;;;;;2.00;1.25;;;;;10.74;100.00;101326.53;4972238;28;64022;-64
2023/01/14 04:21:31;;;;;;;;;3.25;1.25;;;;;10.69;100.00;101321.13;4972472;28;51238;-64
2023/01/14 04:23:56;;;;;;;;;4.00;3.00;;;;;10.73;100.00;101324.75;4972333;28;59340;-73
2023/01/14 04:26:22;;;;;;;;;3.75;1.00;;;;;10.67;100.00;101300.91;4972807;28;49990;-64
2023/01/14 04:28:47;;;;;;;;;3.25;1.50;;;;;10.81;100.00;101316.25;4972918;28;50723;-70
2023/01/14 04:31:12;;;;;;;;;7.25;4.00;;;;;10.79;100.00;101311.75;4972483;28;51662;-65
2023/01/14 04:33:38;;;;;;;;;3.25;2.25;;;;;10.80;100.00;101316.16;4973114;28;49914;-65
2023/01/14 04:36:03;;;;;;;;;0.75;0.75;;;;;10.81;100.00;101320.59;4972575;28;49835;-65
2023/01/14 04:38:28;;;;;;;;;2.00;2.00;;;;;10.76;100.00;101309.94;4954564;28;52456;-67
2023/01/14 04:40:57;;;;;;;;;3.25;2.00;;;;;10.79;100.00;101303.88;4972709;28;50631;-65
2023/01/14 04:43:23;;;;;;;;;3.25;2.25;;;;;10.82;100.00;101310.13;4972464;28;49799;-72
2023/01/14 04:45:50;;;;;;;;;3.50;1.00;;;;;10.82;100.00;101296.13;4972859;28;49974;-67
2023/01/14 04:48:15;;;;;;;;;2.00;2.00;;;;;10.83;100.00;101296.16;4972219;28;50974;-64
2023/01/14 04:50:44;;;;;;;;;3.25;2.75;;;;;10.84;100.00;101287.44;4972441;28;49983;-67
2023/01/14 04:53:14;;;;;;;;;2.00;1.00;;;;;10.97;100.00;101295.63;4972534;28;49740;-71
2023/01/14 04:55:41;;;;;;;;;4.25;1.25;;;;;10.57;100.00;101223.63;4972436;28;49838;-65
2023/01/14 04:58:09;;;;;;;;;5.00;3.00;;;;;10.85;100.00;101259.44;4971580;28;49755;-69
2023/01/14 05:00:36;;;;;;;;;3.00;3.00;;;;;10.97;100.00;101275.50;4972149;28;49735;-66
2023/01/14 05:03:03;;;;;;;;;3.75;3.75;;;;;10.89;100.00;101256.03;4972312;28;49835;-64
2023/01/14 05:05:29;;;;;;;;;4.75;4.75;;;;;10.84;100.00;101240.16;4972339;28;49854;-70
2023/01/14 05:07:54;;;;;;;;;4.00;2.00;;;;;10.92;100.00;101260.50;4978220;28;50013;-65
2023/01/14 05:10:19;;;;;;;;;2.00;1.25;;;;;10.89;100.00;101246.41;4972037;28;49928;-65
2023/01/14 05:12:57;;;;;;;;;5.25;2.00;;;;;10.94;100.00;101253.53;4972859;28;53460;-67
2023/01/14 05:15:28;;;;;;;;;3.25;2.00;;;;;11.00;100.00;101264.19;4984199;28;49622;-67
2023/01/14 05:17:54;;;;;;;;;1.75;1.75;;;;;10.97;100.00;101248.34;4962747;28;50440;-65
2023/01/14 05:20:20;;;;;;;;;4.00;2.50;;;;;10.58;100.00;101176.41;4985602;28;57836;-74
2023/01/14 05:22:46;;;;;;;;;3.00;2.00;;;;;10.95;100.00;101237.81;4979746;28;49775;-72
2023/01/14 05:25:11;;;;;;;;;4.00;1.50;;;;;11.06;100.00;101252.13;4979199;28;49585;-64
2023/01/14 05:27:37;;;;;;;;;1.50;1.00;;;;;11.05;100.00;101242.47;4982544;28;49810;-72
2023/01/14 05:30:04;;;;;;;;;4.75;2.00;;;;;10.88;100.00;101215.72;4985163;28;49464;-64
2023/01/14 05:32:29;;;;;;;;;1.00;1.00;;;;;11.03;100.00;101228.41;4984781;28;49476;-70
2023/01/14 05:34:54;;;;;;;;;3.00;1.75;;;;;10.58;100.00;101128.28;4977157;28;53950;-66
2023/01/14 05:37:19;;;;;;;;;8.75;2.50;;;;;10.92;100.00;101184.31;4984665;28;63201;-65
2023/01/14 05:39:45;;;;;;;;;4.00;1.00;;;;;11.02;100.00;101196.84;4981493;28;64190;-71
2023/01/14 05:47:38;;;;;;;;;2.25;2.00;;;;;10.78;100.00;101129.66;4970491;28;49852;-65
2023/01/14 05:50:04;;;;;;;;;3.75;2.25;;;;;11.09;100.00;101161.97;4985135;28;61791;-66
2023/01/14 05:52:29;;;;;;;;;2.00;1.00;;;;;11.04;100.00;101169.75;4979714;28;49708;-67
2023/01/14 05:54:54;;;;;;;;;4.75;3.00;;;;;11.10;100.00;101174.28;4964086;28;55078;-66
2023/01/14 05:57:19;;;;;;;;;4.00;3.00;;;;;11.07;100.00;101156.69;4968951;28;62569;-69
2023/01/14 05:59:45;;;;;;;;;2.25;2.25;;;;;11.05;100.00;101142.63;4982726;28;49206;-67
2023/01/14 06:07:37;;;;;;;;;2.75;2.75;;;;;11.05;100.00;101133.84;4984677;28;49558;-67
2023/01/14 06:10:04;;;;;;;;;4.50;2.00;;;;;10.80;100.00;101085.94;4985456;28;49836;-64
2023/01/14 06:15:33;;;;;;;;;5.00;3.75;;;;;11.01;100.00;101111.88;4953316;28;49927;-74
2023/01/14 06:18:09;;;;;;;;;7.75;1.50;;;;;10.91;100.00;101086.25;4984954;28;50046;-74
2023/01/14 06:20:36;;;;;;;;;3.00;1.00;;;;;10.98;100.00;101106.53;4983176;28;49538;-65
2023/01/14 06:23:02;;;;;;;;;3.00;1.00;;;;;11.02;100.00;101100.53;4985478;28;49400;-70
2023/01/14 06:25:29;;;;;;;;;2.00;2.00;;;;;10.99;100.00;101117.94;4973139;28;49418;-64
2023/01/14 06:27:55;;;;;;;;;5.00;2.00;;;;;11.03;100.00;101123.31;4984998;28;50056;-66
2023/01/14 06:30:21;;;;;;;;;0.00;0.00;;;;;10.58;100.00;101042.53;4981885;28;49227;-65
2023/01/14 06:32:46;;;;;;;;;2.50;1.00;;;;;10.90;100.00;101087.06;4981422;28;49718;-64
2023/01/14 06:35:11;;;;;;;;;1.75;1.75;;;;;10.99;100.00;101096.91;4971298;28;49132;-75
2023/01/14 06:37:37;;;;;;;;;2.00;1.00;;;;;10.97;100.00;101043.47;4979482;28;67211;-65
2023/01/14 06:40:02;;;;;;;;;1.00;0.00;;;;;11.01;100.00;101092.59;4985598;28;50998;-64
2023/01/14 06:42:27;;;;;;;;;1.50;0.25;;;;;10.47;100.00;100988.88;4986032;28;49792;-71
2023/01/14 06:44:53;;;;;;;;;1.00;1.00;;;;;10.82;100.00;101026.50;4960897;28;55395;-66
2023/01/14 06:47:18;;;;;;;;;2.00;1.00;;;;;10.97;100.00;101081.13;4981353;28;60065;-72
2023/01/14 06:49:43;;;;;;;;;3.50;1.00;;;;;10.69;100.00;101040.16;4957786;28;58221;-64
2023/01/14 06:52:09;;;;;;;;;1.00;1.00;;;;;10.97;100.00;101077.59;4983159;28;49736;-65
2023/01/14 06:54:35;;;;;;;;;6.00;1.25;;;;;10.90;100.00;101060.78;4981481;28;49616;-69
2023/01/14 06:57:03;;;;;;;;;0.50;0.50;;;;;10.99;100.00;101057.50;4975945;28;65138;-67
2023/01/14 06:59:29;;;;;;;;;0.50;0.50;;;;;10.89;100.00;101038.00;4980783;28;49930;-70
2023/01/14 07:01:54;;;;;;;;;1.25;1.00;;;;;10.89;100.00;101038.00;4968757;28;49498;-68
2023/01/14 07:04:19;;;;;;;;;1.75;1.75;;;;;10.86;100.00;101036.22;4971876;28;55699;-76
2023/01/14 07:06:44;;;;;;;;;1.50;1.50;;;;;11.01;100.00;101058.47;4986710;28;50266;-66
2023/01/14 07:09:10;;;;;;;;;4.00;2.25;;;;;10.97;100.00;101046.09;4989757;28;49281;-66
2023/01/14 07:11:35;;;;;;;;;2.00;1.00;;;;;10.96;100.00;101025.94;4977784;28;49605;-69
2023/01/14 07:14:00;;;;;;;;;4.25;1.00;;;;;10.71;100.00;100998.19;4987659;28;54206;-71
2023/01/14 07:16:26;;;;;;;;;3.75;3.00;;;;;10.75;100.00;101003.56;4984539;28;71592;-67
2023/01/14 07:18:51;;;;;;;;;5.75;2.00;;;;;10.89;100.00;101010.00;4984496;28;49206;-70
2023/01/14 07:21:16;;;;;;;;;0.75;0.50;;;;;11.01;100.00;101019.94;4985715;28;49365;-72
2023/01/14 07:23:41;;;;;;;;;1.00;1.00;;;;;10.94;100.00;101015.38;4986315;28;49669;-64
2023/01/14 07:26:07;;;;;;;;;3.50;0.25;;;;;10.96;100.00;101021.56;4982949;28;71036;-66
2023/01/14 07:28:32;;;;;;;;;3.25;1.00;;;;;10.98;100.00;101006.72;4986317;28;57816;-64
2023/01/14 07:31:04;;;;;;;;;8.00;2.00;;;;;11.03;100.00;101004.22;4986921;28;49747;-66
2023/01/14 07:33:29;;;;;;;;;3.75;1.00;;;;;10.97;100.00;100990.91;4987982;28;49640;-65
2023/01/14 07:35:57;;;;;;;;;4.25;3.00;;;;;10.96;100.00;101000.53;4983611;28;69541;-68
2023/01/14 07:38:22;;;;;;;;;1.25;1.25;;;;;10.99;100.00;100986.59;4988145;28;49472;-65
2023/01/14 07:40:50;;;;;;;;;1.00;1.00;;;;;10.91;100.00;100961.91;4987340;28;49945;-65
2023/01/14 07:43:16;;;;;;;;;1.00;1.00;;;;;11.02;100.00;100970.91;4987484;28;49496;-65
2023/01/14 07:45:41;;;;;;;;;0.00;0.00;;;;;10.75;100.00;100934.41;4984097;28;54744;-68
2023/01/14 07:48:07;;;;;;;;;2.00;2.00;;;;;10.57;100.00;100893.75;4985697;28;49870;-70
2023/01/14 07:50:32;;;;;;;;;0.50;0.00;;;;;10.91;100.00;100960.16;4983899;28;50215;-70
2023/01/14 07:52:59;;;;;;;;;1.00;1.00;;;;;10.98;100.00;100951.53;4981130;28;49935;-65
2023/01/14 07:55:25;;;;;;;;;3.00;2.00;;;;;11.02;100.00;100936.75;4986841;28;50732;-65
2023/01/14 07:57:51;;;;;;;;;1.00;1.00;;;;;10.92;100.00;100961.06;4986873;28;49432;-72
2023/01/14 08:00:17;;;;;;;;;1.00;1.00;;;;;11.01;100.00;100967.41;4982145;28;49343;-64
2023/01/14 08:02:43;;;;;;;;;1.00;0.00;;;;;11.00;100.00;100955.13;4984256;28;49573;-65
2023/01/14 08:05:09;;;;;;;;;4.00;2.00;;;;;11.07;100.00;100969.25;4980466;28;49711;-64
2023/01/14 08:07:34;;;;;;;;;2.00;0.75;;;;;11.11;100.00;100960.59;4987331;28;49426;-65
2023/01/14 08:09:59;;;;;;;;;0.00;0.00;;;;;11.12;100.00;100951.88;4985438;28;49644;-65
2023/01/14 08:12:25;;;;;;;;;0.75;0.75;;;;;11.01;100.00;100928.00;4981824;28;57368;-64
2023/01/14 08:14:50;;;;;;;;;0.00;0.00;;;;;11.02;100.00;100914.00;4989566;28;49638;-64
2023/01/14 08:17:15;;;;;;;;;3.75;1.00;;;;;11.06;100.00;100907.06;4975592;28;50805;-65
2023/01/14 08:19:41;;;;;;;;;0.75;0.75;;;;;11.11;100.00;100922.09;4969187;28;49562;-73
2023/01/14 08:22:06;;;;;;;;;1.00;1.00;;;;;10.89;100.00;100870.81;4979034;28;49702;-68
2023/01/14 08:24:31;;;;;;;;;0.75;0.75;;;;;11.10;100.00;100930.81;4981475;28;49712;-65
2023/01/14 08:26:57;;;;;;;;;2.75;1.75;;;;;11.10;100.00;100911.53;4969669;28;49740;-70
2023/01/14 08:29:22;;;;;;;;;4.00;2.50;;;;;11.18;100.00;100920.44;4982126;28;49975;-74
2023/01/14 08:31:51;;;;;;;;;1.50;0.50;;;;;11.18;100.00;100912.56;4985240;28;49385;-65
2023/01/14 08:34:17;;;;;;;;;1.00;0.25;;;;;11.19;100.00;100916.97;4981524;28;50501;-66
2023/01/14 08:36:44;;;;;;;;;0.50;0.50;;;;;11.13;100.00;100901.09;4978370;28;49769;-67
2023/01/14 08:39:09;;;;;;;;;2.00;1.00;;;;;11.23;100.00;100920.56;4973850;28;49835;-65
2023/01/14 08:41:36;;;;;;;;;2.25;0.50;;;;;11.20;100.00;100910.88;4977326;28;50216;-64
2023/01/14 08:44:01;;;;;;;;;0.00;0.00;;;;;11.10;100.00;100891.41;4976395;28;50208;-67
2023/01/14 08:46:26;;;;;;;;;1.00;1.00;;;;;11.23;100.00;100892.53;4984280;28;61890;-64
2023/01/14 08:48:51;;;;;;;;;1.00;1.00;;;;;11.19;100.00;100874.91;4985596;28;49767;-65
2023/01/14 08:51:18;;;;;;;;;1.75;0.00;;;;;11.15;100.00;100863.47;4969520;28;49962;-72
2023/01/14 08:53:43;;;;;;;;;1.00;1.00;;;;;11.21;100.00;100883.75;4988112;28;49971;-68
2023/01/14 08:56:11;;;;;;;;;2.00;1.00;;;;;11.30;100.00;100899.69;4985278;28;49653;-69
2023/01/14 08:58:37;;;;;;;;;1.00;0.00;;;;;11.27;100.00;100896.97;4986078;28;49222;-63
2023/01/14 09:01:06;;;;;;;;;0.00;0.00;;;;;11.01;100.00;100840.41;4976835;28;49720;-74
2023/01/14 09:03:33;;;;;;;;;1.75;1.75;;;;;11.25;100.00;100854.03;4962911;28;51522;-66
2023/01/14 09:06:00;;;;;;;;;2.50;2.50;;;;;11.06;100.00;100809.84;4986665;28;49206;-65
2023/01/14 09:19:28;;;;;;;;;1.00;0.00;;;;;11.11;100.00;100747.78;4973378;28;49827;-63
2023/01/14 09:21:54;;;;;;;;;2.50;0.25;;;;;11.62;100.00;100828.44;4971431;28;49962;-71
2023/01/14 09:24:19;;;;;;;;;0.25;0.25;;;;;11.45;100.00;100796.56;4953654;28;51670;-67
2023/01/14 09:26:44;;;;;;;;;0.00;0.00;;;;;11.56;100.00;100807.28;4971881;28;49749;-68
2023/01/14 09:29:09;;;;;;;;;2.50;2.50;;;;;11.27;100.00;100741.06;4973044;28;49930;-67
2023/01/14 09:31:35;;;;;;;;;0.00;0.00;;;;;11.61;100.00;100821.41;4977465;28;49682;-78
2023/01/14 09:34:00;;;;;;;;;0.00;0.00;;;;;11.59;100.00;100781.06;4975346;28;49719;-71
2023/01/14 09:36:26;;;;;;;;;0.75;0.00;;;;;11.59;100.00;100781.94;4970992;28;62815;-66
2023/01/14 09:38:51;;;;;;;;;0.00;0.00;;;;;11.84;100.00;100827.06;4953987;28;49980;-71
2023/01/14 09:41:28;;;;;;;;;1.25;0.25;;;;;11.63;100.00;100773.22;4972548;28;49992;-66
2023/01/14 09:43:54;;;;;;;;;1.00;1.00;;;;;11.99;100.00;100836.13;4971251;28;50632;-67
2023/01/14 09:46:25;;;;;;;;;1.00;0.00;;;;;12.07;100.00;100816.94;4969427;28;49671;-84
2023/01/14 09:48:51;;;;;;;;;0.00;0.00;;;;;11.58;100.00;100718.78;4956471;28;50159;-73
2023/01/14 09:51:46;;;;;;;;;0.00;0.00;;;;;12.09;100.00;100794.16;4966549;28;49893;-66
2023/01/14 09:54:41;;;;;;;;;0.00;0.00;;;;;12.08;100.00;100803.81;4966328;28;51194;-70
2023/01/14 09:57:43;;;;;;;;;1.00;1.00;;;;;12.12;100.00;100796.84;4966972;28;49776;-72
2023/01/14 10:00:41;;;;;;;;;1.00;1.00;;;;;12.16;100.00;100790.75;4968675;28;49744;-67
2023/01/14 10:03:15;;;;;;;;;1.75;0.75;;;;;12.21;100.00;100782.06;4954702;28;50058;-73
2023/01/14 10:05:53;;;;;;;;;1.50;1.00;;;;;12.18;100.00;100770.63;4966585;28;50807;-68
2023/01/14 10:08:20;;;;;;;;;0.00;0.00;;;;;12.07;100.00;100743.28;4966697;28;50195;-75
2023/01/14 10:10:46;;;;;;;;;0.75;0.75;;;;;11.86;100.00;100704.34;4969274;28;50282;-72
2023/01/14 10:13:22;;;;;;;;;1.00;1.00;;;;;12.18;100.00;100765.34;4949020;28;50006;-70
2023/01/14 10:16:08;;;;;;;;;1.00;1.00;;;;;12.38;100.00;100784.06;4968257;28;50968;-73
2023/01/14 10:18:42;;;;;;;;;2.00;2.00;;;;;12.43;100.00;100782.34;4966043;28;49755;-68
2023/01/14 10:21:22;;;;;;;;;1.00;1.00;;;;;12.13;100.00;100703.88;4965771;28;49931;-73
2023/01/14 10:23:47;;;;;;;;;1.00;1.00;;;;;12.29;100.00;100732.16;4967852;28;50019;-75
2023/01/14 10:26:15;;;;;;;;;1.00;1.00;;;;;12.47;100.00;100779.81;4968669;28;50833;-73
2023/01/14 10:28:42;;;;;;;;;1.00;1.00;;;;;12.26;100.00;100746.19;4968169;28;49827;-70
2023/01/14 10:31:16;;;;;;;;;1.75;1.00;;;;;12.09;100.00;100705.56;4967755;28;49996;-67
2023/01/14 10:33:42;;;;;;;;;3.00;1.75;;;;;12.27;100.00;100737.41;4975045;28;49950;-69
2023/01/14 10:36:17;;;;;;;;;1.00;0.50;;;;;12.13;100.00;100706.50;4976784;28;55805;-73
2023/01/14 10:38:42;;;;;;;;;1.50;1.00;;;;;12.09;100.00;100697.69;4986609;28;49534;-71
2023/01/14 10:41:10;;;;;;;;;0.50;0.50;;;;;12.28;100.00;100748.81;4975970;28;49942;-73
2023/01/14 10:43:39;;;;;;;;;1.75;1.75;;;;;12.46;100.00;100758.72;4978389;28;49681;-79
2023/01/14 10:46:05;;;;;;;;;1.75;1.75;;;;;12.44;100.00;100756.03;4974006;28;51054;-78
2023/01/14 10:48:48;;;;;;;;;1.25;1.25;;;;;12.17;100.00;100690.78;4973881;28;49902;-75
2023/01/14 10:51:47;;;;;;;;;1.00;1.00;;;;;12.45;100.00;100757.84;4974698;28;49809;-77
2023/01/14 10:54:12;;;;;;;;;1.00;1.00;;;;;12.46;100.00;100742.94;4974236;28;49724;-82
2023/01/14 10:56:41;;;;;;;;;1.75;1.75;;;;;12.38;100.00;100729.66;4973513;28;50768;-81
2023/01/14 10:59:26;;;;;;;;;2.00;1.25;;;;;12.34;100.00;100722.56;4974094;28;49931;-74
2023/01/14 11:01:53;;;;;;;;;1.00;1.00;;;;;12.23;100.00;100692.59;4974339;28;50370;-82
2023/01/14 11:04:22;;;;;;;;;0.00;0.00;;;;;12.13;100.00;100660.00;4973877;28;49809;-72
2023/01/14 11:06:47;;;;;;;;;2.50;1.00;;;;;12.48;100.00;100710.47;4973630;28;49849;-79
2023/01/14 11:09:21;;;;;;;;;2.00;2.00;;;;;12.52;100.00;100703.47;4973820;28;49728;-77
2023/01/14 11:11:48;;;;;;;;;1.00;1.00;;;;;12.24;100.00;100653.13;4973348;28;49772;-75
2023/01/14 11:14:28;;;;;;;;;1.00;1.00;;;;;12.45;100.00;100683.19;4973771;28;49840;-73
2023/01/14 11:16:54;;;;;;;;;1.00;1.00;;;;;12.56;100.00;100700.91;4973561;28;49694;-79
2023/01/14 11:19:21;;;;;;;;;2.00;1.50;;;;;12.44;100.00;100677.06;4955707;28;49644;-79
2023/01/14 11:21:50;;;;;;;;;1.00;1.00;;;;;12.51;100.00;100668.38;4974622;28;49830;-78
2023/01/14 11:24:29;;;;;;;;;2.50;2.50;;;;;12.45;100.00;100665.69;4974463;28;49869;-77
2023/01/14 11:27:12;;;;;;;;;3.00;2.00;;;;;12.50;100.00;100661.34;4973068;28;50772;-76
2023/01/14 11:29:45;;;;;;;;;1.00;1.00;;;;;12.13;100.00;100569.66;4977150;28;50009;-77
2023/01/14 11:32:19;;;;;;;;;1.00;1.00;;;;;12.44;100.00;100650.72;4973519;28;50135;-70
2023/01/14 11:34:54;;;;;;;;;2.75;2.00;;;;;12.55;100.00;100654.41;4973398;28;49614;-79
2023/01/14 11:37:24;;;;;;;;;2.00;2.00;;;;;12.32;100.00;100616.38;4973058;28;50919;-74
2023/01/14 11:39:57;;;;;;;;;2.75;2.50;;;;;12.48;100.00;100630.59;4973213;28;49744;-79
2023/01/14 11:42:33;;;;;;;;;2.00;2.00;;;;;12.22;100.00;100586.44;4973099;28;49870;-80
2023/01/14 11:44:58;;;;;;;;;1.75;1.00;;;;;12.55;100.00;100635.97;4966673;28;49733;-70
2023/01/14 11:47:25;;;;;;;;;2.00;2.00;;;;;12.48;100.00;100623.59;4971124;28;51874;-69
2023/01/14 11:50:09;;;;;;;;;2.00;2.00;;;;;12.47;100.00;100623.56;4949194;28;50083;-78
2023/01/14 11:52:34;;;;;;;;;2.50;1.50;;;;;12.58;100.00;100616.66;4969505;28;50025;-63
2023/01/14 11:54:59;;;;;;;;;2.00;2.00;;;;;12.48;100.00;100589.34;4972543;28;58145;-65
2023/01/14 11:57:26;;;;;;;;;1.00;1.00;;;;;12.51;100.00;100588.50;4972507;28;50861;-63
2023/01/14 11:59:53;;;;;;;;;1.00;1.00;;;;;12.47;100.00;100563.91;4973209;28;49713;-63